x

Western Gulf Of Alaska - 175nm Se Of Kodiak, Ak (46001) Wave Buoy

10:50pm - Tue 23rd May 2017 All times are AKDT. -8 hours from GMT.

  • Sig Wave height 7.9ft
  • Peak Period 9s
  • Average Period 6s
  • Wind
    20mph, 25mph gusts
  • Sea Temp 44°f
  • Air Temp 44°f
  • Sea Pressure 1024.8mb
  • Western Gulf Of Alaska  - 175nm Se Of Kodiak, Ak
  • Western Gulf Of Alaska  - 175nm Se Of Kodiak, Ak

More Historic Weather Station data

Upgrade to MSW Pro to gain access to the past 30 days of data for over 8000 Wavebouys and Weather Stations around the globe.

Join Pro

Comparision Forecast

View Surf forecast
   
Tue 05/23 10:50pm 8ft 9s 6s 20 25 mph 1024.8mb 44f 44f
9:50pm 8ft 9s 6s 22 27 mph 1024.8mb 44f 44f
8:50pm 8ft 9s 6s 22 27 mph 1024.9mb 44f 45f
7:50pm 7.5ft 9s 5s 20 25 mph 1025.2mb 44f 45f
6:50pm 7.5ft 9s 6s 20 25 mph 1025.2mb 44f 45f
5:50pm 7.5ft 8s 6s 20 25 mph 1025.3mb 44f 45f
4:50pm 8ft 7s 6s 20 27 mph 1025.3mb 44f 45f
3:50pm 8ft 9s 6s 22 25 mph 1025.2mb 44f 45f
2:50pm 8ft 9s 6s 18 22 mph 1025mb 44f 45f
1:50pm 7ft 10s 6s 22 29 mph 1024.7mb 44f 45f
12:50pm 7ft 9s 6s 20 25 mph 1024.3mb 44f 45f
11:50am 6.5ft 10s 5s 20 25 mph 1023.6mb 44f 45f
10:50am 6ft 10s 5s 20 25 mph 1023mb 44f 45f
9:50am 5ft 6s 5s 20 25 mph 1022.5mb 44f 44f
8:50am 5ft 5s 5s 20 27 mph 1021.9mb 44f 45f
7:50am 5ft 10s 5s 20 25 mph 1021.4mb 44f 45f
6:50am 4.5ft 9s 5s 18 20 mph 1021mb 44f 45f
5:50am 4.5ft 10s 5s 13 16 mph 1020.6mb 44f 44f
4:50am 5ft 10s 6s 11 16 mph 1020mb 44f 44f
3:50am 4.5ft 9s 5s 16 20 mph 1019.6mb 44f 44f
2:50am 4.5ft 9s 5s 13 16 mph 1018.9mb 44f 44f
1:50am 4.5ft 11s 6s 18 22 mph 1018.1mb 44f 44f
12:50am 4.5ft 9s 6s 13 18 mph 1017.3mb 44f 45f
Mon 05/22 11:50pm 4.5ft 10s 6s 13 16 mph 1016.1mb 44f 44f
10:50pm 5.5ft 10s 6s 13 16 mph 1015.7mb 44f 44f
9:50pm 5.5ft 11s 7s 13 16 mph 1014.8mb 44f 43f
8:50pm 6ft 11s 7s 11 13 mph 1014mb 44f 43f
7:50pm 6ft 10s 7s 11 13 mph 1013.5mb 44f 43f
6:50pm 5.5ft 10s 6s 13 16 mph 1013mb 44f 42f
5:50pm 6.5ft 11s 7s 13 18 mph 1012.6mb 44f 43f
4:50pm 6ft 10s 7s 11 13 mph 1012.6mb 44f 43f
3:50pm 6.5ft 10s 7s 7 9 mph 1012.7mb 44f 43f
2:50pm 6ft 9s 7s 7 7 mph 1012.5mb 44f 43f
1:50pm 6ft 11s 7s 4 4 mph 1012.3mb 44f 43f
12:50pm 6.5ft 11s 7s 4 4 mph 1012.2mb 44f 43f
11:50am 6.5ft 11s 7s 7 9 mph 1012mb 44f 43f
10:50am 8ft 11s 8s 11 13 mph 1012mb 44f 43f
9:50am 7ft 11s 7s 9 11 mph 1011.8mb 44f 43f
8:50am 7.5ft 10s 7s 7 9 mph 1011.8mb 44f 44f
7:50am 7.5ft 11s 7s 4 7 mph 1011.8mb 44f 44f
6:50am 7ft 11s 6s 7 9 mph 1011.7mb 44f 44f
5:50am 7ft 10s 6s 11 13 mph 1011.7mb 44f 44f
4:50am 7ft 8s 6s 16 18 mph 1011.7mb 44f 44f
3:50am 7ft 9s 6s 16 20 mph 1011.7mb 44f 44f
2:50am 7.5ft 11s 6s 18 20 mph 1011.4mb 44f 44f
1:50am 7ft 12s 6s 16 18 mph 1010.8mb 44f 44f
12:50am 6.5ft 11s 6s 16 18 mph 1010.4mb 44f 44f
Sun 05/21 11:50pm 6.5ft 8s 6s 16 20 mph 1010mb 44f 44f
10:50pm 6ft 8s 5s 18 20 mph 1009.5mb 44f 44f
9:50pm 7ft 9s 6s 18 20 mph 1008.6mb 44f 44f
8:50pm 5.5ft 6s 5s 20 25 mph 1007.8mb 44f 44f
7:50pm 6ft 8s 6s 16 20 mph 1007.4mb 44f 45f
6:50pm 6.5ft 11s 6s 18 20 mph 1006.5mb 44f 45f
5:50pm 7ft 8s 6s 16 20 mph 1006mb 44f 45f
4:50pm 7ft 9s 6s 18 22 mph 1005.6mb 44f 45f
3:50pm 7ft 8s 6s 18 20 mph 1005mb 44f 45f
2:50pm 8ft 8s 6s 18 22 mph 1004.1mb 44f 45f
1:50pm 7.5ft 8s 6s 18 22 mph 1003.2mb 44f 45f
12:50pm 8ft 8s 6s 18 22 mph 1002.3mb 44f 44f
11:50am 7ft 9s 6s 20 27 mph 1001.3mb 44f 44f
10:50am 7ft 7s 6s 20 25 mph 1000.6mb 44f 44f
9:50am 7.5ft 8s 6s 18 22 mph 1000.1mb 44f 44f
8:50am 7ft 8s 5s 18 20 mph 999.7mb 44f 44f
7:50am 6ft 8s 5s 20 25 mph 999.3mb 44f 43f
6:50am 7ft 7s 5s 20 22 mph 999mb 44f 43f
5:50am 7ft 7s 5s 18 22 mph 999mb 44f 44f
4:50am 7ft 8s 5s 20 25 mph 999.2mb 44f 44f
3:50am 6.5ft 7s 5s 20 25 mph 999.3mb 44f 44f
2:50am 6.5ft 7s 5s 18 22 mph 999.5mb 44f 43f
1:50am 6.5ft 7s 5s 18 22 mph 999.6mb 44f 43f
12:50am 6.5ft 7s 5s 18 22 mph 1000.2mb 44f 43f
Sat 05/20 11:50pm 5.5ft 6s 5s 18 22 mph 1000.6mb 44f 44f
10:50pm 5ft 6s 5s 16 20 mph 1000.8mb 44f 44f
9:50pm 4.5ft 6s 4s 18 22 mph 1001.1mb 44f 44f
8:50pm 4.5ft 6s 5s 18 20 mph 1001.4mb 44f 43f
7:50pm 4ft 5s 4s 18 22 mph 1002mb 44f 43f
6:50pm 4.5ft 4s 4s 16 18 mph 1003.2mb 44f 43f
5:50pm 4.5ft 8s 4s 16 20 mph 1003.5mb 44f 44f
4:50pm 4ft 8s 4s 16 20 mph 1003.6mb 44f 44f
3:50pm 4ft 8s 5s 16 18 mph 1004.1mb 44f 43f
2:50pm 4.5ft 9s 5s 16 18 mph 1004.7mb 44f 43f
1:50pm 4ft 10s 5s 13 18 mph 1005mb 44f 43f
12:50pm 3.5ft 8s 4s 16 18 mph 1005.3mb 44f 43f
11:50am 3.5ft 8s 5s 13 16 mph 1005.9mb 44f 43f
10:50am 4.5ft 8s 5s 13 16 mph 1006.7mb 44f 43f
9:50am 4.5ft 8s 5s 11 13 mph 1007mb 44f 43f
8:50am 4.5ft 8s 5s 11 13 mph 1007.4mb 44f 43f